Stony Run, Pennsylvania
Current Conditions -  °F | °C
As of 5:15 AM on Saturday 20 Dec 2014 (Local Time) from KXLL Reporting Station
Overcast Overcast  
Wind Chill: 27°   Ceiling: 2800
Heat Index: 32°   Visibility: 10mi
Dew Point: 21°   Wind: 5mph
Humidity: 64%   Direction: 340°NNW
Pressure: 30.25"   Gusts: NA
Location:  40.62°N, 75.82°W
Report Text: KXLL 201015Z AUTO 34004KT 10SM OVC028 00/M06 A3025 RMK AO2
Loading
Personal Weather Stations






























Interactive Weather Map New forecast layout! Learn more

10-Day Weather Forecast

Advertisements
Track Severe Weather on mobile